Detall de PIREP

Printer-friendly versionPDF version

[2015/12/09 09:37:00]
Flight IATA:CT3217
Pilot Number:016
Company ICAO:CAT
Aircraft Type:B763/F
PAX:200
Departing Airport: EIDW
Destination Airport: LEPA
Alternate Airport:LEBL
Online: VATSIM
Route:BEPAN P620 BANBA UP620 LND UM142 BERAD UN490 TERPO UM616 TUPAR UM184 CNA UN863 AGN UN727 LOMRA UN727 ROCAN UN13 LORES
Flight Level:F380
No Slew and time accel
No pause
Crash detect
Detect pilot in Cockpit between each 30 and 45 minutes
09:37 Zero fuel Weight: 243994 Lbs, Fuel Weight: 85846 Lbs
09:37 VATSIM:EIDW 091530Z 21028G40KT 9999 SCT017 BKN150 11/08 Q1015 NOSIG
09:37 VATSIM:LEPA 091530Z 06012KT 9999 FEW035 17/09 Q1035 NOSIG
09:37 Parking Brakes off
09:42 Take-off
09:42 Take off Weight: 328405 Lbs
09:42 Wind: 218º @ 028 Knots Heading: 329º
09:42 POS N53º 25´ 55´´ W006º 15´ 30´´
09:42 Gear Up: 166 Knots
09:42 Flaps:2 at 167 Knots
09:43 Flaps:1 at 216 Knots
09:44 Flaps:0 at 251 Knots
09:55 TOC
09:55 Fuel Weight: 78226 Lb
09:57 Wind:214º@107 Knots Heading: 185º Ground Speed: 359 Knots Altitude 38188 ft
10:12 Wind:207º@078 Knots Heading: 175º Ground Speed: 385 Knots Altitude 38464 ft
10:27 Wind:212º@030 Knots Heading: 153º Ground Speed: 434 Knots Altitude 38612 ft
10:42 Wind:164º@011 Knots Heading: 123º Ground Speed: 440 Knots Altitude 38674 ft
10:57 Wind:118º@013 Knots Heading: 138º Ground Speed: 435 Knots Altitude 38733 ft
11:12 Wind:068º@010 Knots Heading: 153º Ground Speed: 445 Knots Altitude 38727 ft
11:27 Wind:285º@001 Knots Heading: 129º Ground Speed: 449 Knots Altitude 38707 ft
11:41 TOD
11:41 Fuel Weight: 60391 Lb
11:42 Wind:244º@018 Knots Heading: 167º Ground Speed: 449 Knots Altitude 37431 ft
11:57 Wind:028º@008 Knots Heading: 150º Ground Speed: 301 Knots Altitude 12293 ft
11:59 Flaps:1 at 248 Knots
12:02 Flaps:2 at 217 Knots
12:06 Flaps:3 at 195 Knots
12:06 Flaps:4 at 175 Knots
12:07 Flaps:5 at 162 Knots
12:07 Gear Down: 160 Knots
12:07 Flaps:6 at 141 Knots
12:11 TouchDown:Rate -57 ft/min Speed: 135 Knots
12:11 VATSIM:LEPA 091800Z 06004KT CAVOK 13/09 Q1036 NOSIG
12:11 Land
12:11 Wind:062º@005 Knots
12:11 Heading: 237º
12:11 Flight Duration: 02:29
12:11 Landing Weight: 301249 Lbs
12:11 POS N39º 32´ 46´´ E002º 44´ 31´´
12:15 Parking brakes on
12:15 Block to Block Duration: 02:38
12:15 Final Fuel: 56439 Lbls
12:15 Spent Fuel: 29407 Lbls
12:15 Flight Length: 965 NM
12:15 TOD Land Length: 145 NM

Exportar CSV

Powered by Drupal - Modified by Danger4k